createdAt,value
2019-03-18T00:02:10.845Z,8.05
2019-03-18T00:04:40.187Z,8.04
2019-03-18T00:07:09.511Z,8.04
2019-03-18T00:09:38.903Z,8.02
2019-03-18T00:12:08.212Z,8.00
2019-03-18T00:14:38.604Z,8.00
2019-03-18T00:17:07.946Z,8.00
2019-03-18T00:19:37.293Z,7.99
2019-03-18T00:22:06.630Z,7.99
2019-03-18T00:24:35.973Z,7.97
2019-03-18T00:27:05.299Z,7.96
2019-03-18T00:29:34.655Z,7.95
2019-03-18T00:32:03.989Z,7.95
2019-03-18T00:34:33.316Z,7.95
2019-03-18T00:37:02.750Z,7.93
2019-03-18T00:39:32.097Z,7.93
2019-03-18T00:42:01.431Z,7.91
2019-03-18T00:44:30.786Z,7.90
2019-03-18T00:47:00.128Z,7.90
2019-03-18T00:49:29.441Z,7.90
2019-03-18T00:51:58.782Z,7.89
2019-03-18T00:54:28.117Z,7.88
2019-03-18T00:56:57.445Z,7.88
2019-03-18T00:59:26.795Z,7.86
2019-03-18T01:01:56.143Z,7.86
2019-03-18T01:04:25.481Z,7.85
2019-03-18T01:06:54.789Z,7.86
2019-03-18T01:09:24.135Z,7.86
2019-03-18T01:11:53.447Z,7.84
2019-03-18T01:14:23.811Z,7.83
2019-03-18T01:16:53.158Z,7.84
2019-03-18T01:19:23.499Z,7.83
2019-03-18T01:21:52.819Z,7.83
2019-03-18T01:24:22.209Z,7.82
2019-03-18T01:26:51.540Z,7.80
2019-03-18T01:29:20.841Z,7.79
2019-03-18T01:31:52.368Z,7.80
2019-03-18T01:34:21.687Z,7.80
2019-03-18T01:36:51.068Z,7.80
2019-03-18T01:39:20.404Z,7.79
2019-03-18T01:41:49.740Z,7.79
2019-03-18T01:44:19.091Z,7.79
2019-03-18T01:46:48.476Z,7.78
2019-03-18T01:49:17.791Z,7.78
2019-03-18T01:51:47.123Z,7.77
2019-03-18T01:54:16.483Z,7.77
2019-03-18T01:56:45.805Z,7.76
2019-03-18T01:59:15.149Z,7.75
2019-03-18T02:01:44.571Z,7.72
2019-03-18T02:04:13.930Z,7.73
2019-03-18T02:06:45.354Z,7.72
2019-03-18T02:09:18.748Z,7.71
2019-03-18T02:11:48.096Z,7.70
2019-03-18T02:14:17.394Z,7.69
2019-03-18T02:16:46.739Z,7.67
2019-03-18T02:19:16.065Z,7.67
2019-03-18T02:21:45.409Z,7.65
2019-03-18T02:24:14.729Z,7.65
2019-03-18T02:26:44.098Z,7.64
2019-03-18T02:29:13.444Z,7.64
2019-03-18T02:31:42.776Z,7.63
2019-03-18T02:34:12.138Z,7.63
2019-03-18T02:36:41.501Z,7.64
2019-03-18T02:39:10.834Z,7.64
2019-03-18T02:41:40.162Z,7.63
2019-03-18T02:44:09.523Z,7.64
2019-03-18T02:46:38.912Z,7.64
2019-03-18T02:49:08.248Z,7.64
2019-03-18T02:51:39.412Z,7.64
2019-03-18T02:54:08.740Z,7.63
2019-03-18T02:56:38.081Z,7.65
2019-03-18T02:59:07.381Z,7.66
2019-03-18T03:01:37.763Z,7.67
2019-03-18T03:04:07.131Z,7.68
2019-03-18T03:06:36.475Z,7.70
2019-03-18T03:09:08.005Z,7.72
2019-03-18T03:11:37.349Z,7.73
2019-03-18T03:14:06.673Z,7.75
2019-03-18T03:16:36.019Z,7.75
2019-03-18T03:19:05.365Z,7.75
2019-03-18T03:21:34.714Z,7.75
2019-03-18T03:24:04.075Z,7.73
2019-03-18T03:26:33.449Z,7.74
2019-03-18T03:29:02.804Z,7.74
2019-03-18T03:31:32.153Z,7.72
2019-03-18T03:34:01.475Z,7.72
2019-03-18T03:36:30.817Z,7.70
2019-03-18T03:39:00.181Z,7.71
2019-03-18T03:41:29.634Z,7.69
2019-03-18T03:43:58.995Z,7.69
2019-03-18T03:46:42.466Z,7.69
2019-03-18T03:48:59.363Z,7.69
2019-03-18T03:51:29.418Z,7.68
2019-03-18T03:53:58.741Z,7.69
2019-03-18T03:56:28.102Z,7.68
2019-03-18T03:58:57.559Z,7.69
2019-03-18T04:01:29.455Z,7.68
2019-03-18T04:03:57.950Z,7.67
2019-03-18T04:06:27.285Z,7.67
2019-03-18T04:08:56.727Z,7.67
2019-03-18T04:11:26.080Z,7.67
2019-03-18T04:13:56.446Z,7.67
2019-03-18T04:16:25.808Z,7.67
2019-03-18T04:18:57.019Z,7.67
2019-03-18T04:21:26.357Z,7.66
2019-03-18T04:23:57.747Z,7.66
2019-03-18T04:26:27.102Z,7.66
2019-03-18T04:28:56.430Z,7.67
2019-03-18T04:31:25.750Z,7.66
2019-03-18T04:33:55.083Z,7.67
2019-03-18T04:36:24.414Z,7.68
2019-03-18T04:38:53.804Z,7.67
2019-03-18T04:41:23.157Z,7.66
2019-03-18T04:43:52.489Z,7.66
2019-03-18T04:46:24.018Z,7.66
2019-03-18T04:48:53.388Z,7.65
2019-03-18T04:51:24.752Z,7.65
2019-03-18T04:53:55.429Z,7.64
2019-03-18T04:56:24.778Z,7.63
2019-03-18T04:58:54.117Z,7.61
2019-03-18T05:01:23.469Z,7.61
2019-03-18T05:03:52.796Z,7.59
2019-03-18T05:06:22.159Z,7.58
2019-03-18T05:08:51.484Z,7.58
2019-03-18T05:11:20.844Z,7.58
2019-03-18T05:13:50.267Z,7.59
2019-03-18T05:16:19.638Z,7.59
2019-03-18T05:18:49.982Z,7.59
2019-03-18T05:21:19.315Z,7.60
2019-03-18T05:23:48.653Z,7.60
2019-03-18T05:26:18.015Z,7.61
2019-03-18T05:28:47.358Z,7.62
2019-03-18T05:31:16.659Z,7.63
2019-03-18T05:33:46.008Z,7.63
2019-03-18T05:36:15.371Z,7.62
2019-03-18T05:38:44.698Z,7.61
2019-03-18T05:41:14.062Z,7.62
2019-03-18T05:43:45.252Z,7.60
2019-03-18T05:46:14.595Z,7.58
2019-03-18T05:48:43.920Z,7.56
2019-03-18T05:51:13.276Z,7.56
2019-03-18T05:53:42.578Z,7.54
2019-03-18T05:56:12.813Z,7.52
2019-03-18T05:58:42.143Z,7.50
2019-03-18T06:01:11.457Z,7.47
2019-03-18T06:03:40.819Z,7.44
2019-03-18T06:06:10.141Z,7.42
2019-03-18T06:08:39.489Z,7.40
2019-03-18T06:11:08.841Z,7.38
2019-03-18T06:13:38.167Z,7.37
2019-03-18T06:16:07.519Z,7.37
2019-03-18T06:18:36.840Z,7.38
2019-03-18T06:21:06.191Z,7.38
2019-03-18T06:23:35.509Z,7.39
2019-03-18T06:26:04.896Z,7.40
2019-03-18T06:28:34.233Z,7.40
2019-03-18T06:31:03.571Z,7.41
2019-03-18T06:33:32.908Z,7.42
2019-03-18T06:36:02.368Z,7.43
2019-03-18T06:38:31.719Z,7.44
2019-03-18T06:41:01.065Z,7.46
2019-03-18T06:43:30.408Z,7.47
2019-03-18T06:45:59.785Z,7.50
2019-03-18T06:48:29.127Z,7.51
2019-03-18T06:50:58.446Z,7.53
2019-03-18T06:53:27.797Z,7.54
2019-03-18T06:55:57.148Z,7.55
2019-03-18T06:58:26.503Z,7.56
2019-03-18T07:00:55.852Z,7.57
2019-03-18T07:03:25.196Z,7.58
2019-03-18T07:05:54.521Z,7.59
2019-03-18T07:08:23.877Z,7.62
2019-03-18T07:10:53.567Z,7.64
2019-03-18T07:13:22.880Z,7.66
2019-03-18T07:15:52.236Z,7.67
2019-03-18T07:18:21.614Z,7.69
2019-03-18T07:20:50.951Z,7.71
2019-03-18T07:23:20.325Z,7.70
2019-03-18T07:25:49.829Z,7.71
2019-03-18T07:28:19.230Z,7.72
2019-03-18T07:30:48.560Z,7.75
2019-03-18T07:33:17.888Z,7.75
2019-03-18T07:35:48.370Z,7.77
2019-03-18T07:38:17.731Z,7.78
2019-03-18T07:40:47.129Z,7.80
2019-03-18T07:43:16.484Z,7.82
2019-03-18T07:45:45.863Z,7.84
2019-03-18T07:48:15.226Z,7.85
2019-03-18T07:50:44.557Z,7.87
2019-03-18T07:53:13.881Z,7.87
2019-03-18T07:55:43.454Z,7.89
2019-03-18T07:58:13.982Z,7.90
2019-03-18T08:00:43.430Z,7.92
2019-03-18T08:03:12.840Z,7.94
2019-03-18T08:05:42.289Z,7.97
2019-03-18T08:08:11.592Z,8.00
2019-03-18T08:10:41.037Z,8.03
2019-03-18T08:13:10.466Z,8.08
2019-03-18T08:15:39.932Z,8.14
2019-03-18T08:18:09.257Z,8.20
2019-03-18T08:20:38.706Z,8.23
2019-03-18T08:23:08.021Z,8.26
2019-03-18T08:25:37.375Z,8.30
2019-03-18T08:28:06.722Z,8.31
2019-03-18T08:30:36.077Z,8.30
2019-03-18T08:33:05.463Z,8.30
2019-03-18T08:35:34.809Z,8.31
2019-03-18T08:38:04.142Z,8.32
2019-03-18T08:40:33.497Z,8.33
2019-03-18T08:43:02.897Z,8.34
2019-03-18T08:45:32.273Z,8.34
2019-03-18T08:48:01.665Z,8.37
2019-03-18T08:50:32.139Z,8.40
2019-03-18T08:53:01.480Z,8.43
2019-03-18T08:55:30.823Z,8.47
2019-03-18T08:58:00.153Z,8.48
2019-03-18T09:00:29.518Z,8.50
2019-03-18T09:02:58.834Z,8.51
2019-03-18T09:05:28.153Z,8.51
2019-03-18T09:07:57.495Z,8.52
2019-03-18T09:10:26.814Z,8.55
2019-03-18T09:12:56.164Z,8.56
2019-03-18T09:15:26.329Z,8.57
2019-03-18T09:17:55.635Z,8.56
2019-03-18T09:20:24.959Z,8.56
2019-03-18T09:22:54.312Z,8.57
2019-03-18T09:25:23.654Z,8.56
2019-03-18T09:27:53.014Z,8.54
2019-03-18T09:30:22.332Z,8.56
2019-03-18T09:32:51.671Z,8.58
2019-03-18T09:35:21.021Z,8.60
2019-03-18T09:37:50.368Z,8.60
2019-03-18T09:40:19.727Z,8.58
2019-03-18T09:42:54.878Z,8.56
2019-03-18T09:45:24.237Z,8.57
2019-03-18T09:47:56.142Z,8.59
2019-03-18T09:50:24.611Z,8.61
2019-03-18T09:52:53.976Z,8.64
2019-03-18T09:55:23.334Z,8.66
2019-03-18T09:57:52.692Z,8.68
2019-03-18T10:00:22.039Z,8.70
2019-03-18T10:02:51.388Z,8.73
2019-03-18T10:05:20.709Z,8.73
2019-03-18T10:07:50.045Z,8.72
2019-03-18T10:10:19.374Z,8.73
2019-03-18T10:12:48.722Z,8.73
2019-03-18T10:15:18.063Z,8.73
2019-03-18T10:17:47.395Z,8.75
2019-03-18T10:20:16.745Z,8.73
2019-03-18T10:22:46.089Z,8.73
2019-03-18T10:25:15.420Z,8.72
2019-03-18T10:27:44.728Z,8.73
2019-03-18T10:30:14.089Z,8.73
2019-03-18T10:32:43.393Z,8.73
2019-03-18T10:35:12.834Z,8.71
2019-03-18T10:37:42.173Z,8.68
2019-03-18T10:40:11.560Z,8.67
2019-03-18T10:42:41.203Z,8.63
2019-03-18T10:45:10.784Z,8.60
2019-03-18T10:47:40.113Z,8.59
2019-03-18T10:50:12.336Z,8.57
2019-03-18T10:52:41.779Z,8.57
2019-03-18T10:55:31.600Z,8.58
2019-03-18T10:58:00.972Z,8.56
2019-03-18T11:00:30.320Z,8.54
2019-03-18T11:02:59.696Z,8.50
2019-03-18T11:05:29.030Z,8.47
2019-03-18T11:07:58.342Z,8.45
2019-03-18T11:10:27.689Z,8.44
2019-03-18T11:12:57.015Z,8.44
2019-03-18T11:15:26.369Z,8.44
2019-03-18T11:17:55.746Z,8.44
2019-03-18T11:20:25.188Z,8.45
2019-03-18T11:22:54.530Z,8.45
2019-03-18T11:25:23.922Z,8.45
2019-03-18T11:27:53.259Z,8.46
2019-03-18T11:30:22.587Z,8.48
2019-03-18T11:32:51.959Z,8.51
2019-03-18T11:35:21.275Z,8.50
2019-03-18T11:37:50.664Z,8.55
2019-03-18T11:40:20.089Z,8.56
2019-03-18T11:42:49.396Z,8.56
2019-03-18T11:45:19.037Z,8.54
2019-03-18T11:47:48.381Z,8.53
2019-03-18T11:50:17.830Z,8.54
2019-03-18T11:52:47.160Z,8.60
2019-03-18T11:55:16.676Z,8.63
2019-03-18T11:57:46.043Z,8.66
2019-03-18T12:00:16.876Z,8.69
2019-03-18T12:02:46.205Z,8.75
2019-03-18T12:05:16.490Z,8.80
2019-03-18T12:07:45.809Z,8.87
2019-03-18T12:10:16.389Z,8.94
2019-03-18T12:12:45.728Z,8.98
2019-03-18T12:15:15.178Z,9.00
2019-03-18T12:17:44.507Z,8.98
2019-03-18T12:20:23.669Z,8.99
2019-03-18T12:22:45.153Z,9.01
2019-03-18T12:25:14.462Z,8.99
2019-03-18T12:27:43.823Z,9.02
2019-03-18T12:30:15.621Z,9.07
2019-03-18T12:32:44.984Z,9.15
2019-03-18T12:35:14.437Z,9.22
2019-03-18T12:37:43.978Z,9.29
2019-03-18T12:40:13.360Z,9.34
2019-03-18T12:42:42.696Z,9.40
2019-03-18T12:45:12.919Z,9.43
2019-03-18T12:47:43.297Z,9.45
2019-03-18T12:50:14.593Z,9.46
2019-03-18T12:52:45.076Z,9.49
2019-03-18T12:55:14.426Z,9.50
2019-03-18T12:57:43.780Z,9.55
2019-03-18T13:00:15.935Z,9.65
2019-03-18T13:02:45.275Z,9.73
2019-03-18T13:05:14.893Z,9.75
2019-03-18T13:07:44.356Z,9.72
2019-03-18T13:10:14.349Z,9.73
2019-03-18T13:12:43.666Z,9.77
2019-03-18T13:15:14.364Z,9.79
2019-03-18T13:17:44.238Z,9.78
2019-03-18T13:20:14.167Z,9.77
2019-03-18T13:22:43.509Z,9.74
2019-03-18T13:25:13.039Z,9.70
2019-03-18T13:27:42.800Z,9.62
2019-03-18T13:30:15.390Z,9.56
2019-03-18T13:32:44.913Z,9.53
2019-03-18T13:35:14.563Z,9.52
2019-03-18T13:37:43.891Z,9.52
2019-03-18T13:40:13.340Z,9.51
2019-03-18T13:42:42.711Z,9.52
2019-03-18T13:45:13.731Z,9.49
2019-03-18T13:47:43.089Z,9.45
2019-03-18T13:50:14.114Z,9.43
2019-03-18T13:52:43.451Z,9.41
2019-03-18T13:55:12.889Z,9.42
2019-03-18T13:57:42.242Z,9.41
2019-03-18T14:00:13.243Z,9.38
2019-03-18T14:02:42.829Z,9.36
2019-03-18T14:05:12.190Z,9.34
2019-03-18T14:07:41.500Z,9.30
2019-03-18T14:10:12.432Z,9.27
2019-03-18T14:12:41.734Z,9.23
2019-03-18T14:15:15.199Z,9.19
2019-03-18T14:17:44.550Z,9.17
2019-03-18T14:20:14.958Z,9.14
2019-03-18T14:22:44.381Z,9.12
2019-03-18T14:25:13.841Z,9.09
2019-03-18T14:27:43.156Z,9.05
2019-03-18T14:30:16.195Z,9.02
2019-03-18T14:32:45.536Z,8.98
2019-03-18T14:35:15.088Z,8.96
2019-03-18T14:37:44.464Z,8.94
2019-03-18T14:40:14.063Z,8.91
2019-03-18T14:42:43.407Z,8.87
2019-03-18T14:45:15.131Z,8.85
2019-03-18T14:47:44.503Z,8.84
2019-03-18T14:50:14.386Z,8.81
2019-03-18T14:52:43.737Z,8.80
2019-03-18T14:55:13.120Z,8.79
2019-03-18T14:57:42.540Z,8.79
2019-03-18T15:00:19.422Z,8.77
2019-03-18T15:02:48.797Z,8.75
2019-03-18T15:05:18.284Z,8.73
2019-03-18T15:07:47.649Z,8.72
2019-03-18T15:10:17.057Z,8.72
2019-03-18T15:12:46.389Z,8.72
2019-03-18T15:15:16.238Z,8.74
2019-03-18T15:17:45.569Z,8.75
2019-03-18T15:20:14.955Z,8.72
2019-03-18T15:22:44.301Z,8.71
2019-03-18T15:25:15.882Z,8.71
2019-03-18T15:27:45.256Z,8.72
2019-03-18T15:30:16.279Z,8.72
2019-03-18T15:32:45.625Z,8.76
2019-03-18T15:35:14.977Z,8.76
2019-03-18T15:37:44.444Z,8.77
2019-03-18T15:40:14.967Z,8.77
2019-03-18T15:42:44.307Z,8.76
2019-03-18T15:45:14.334Z,8.76
2019-03-18T15:47:43.775Z,8.77
2019-03-18T15:50:14.882Z,8.79
2019-03-18T15:52:44.604Z,8.80
2019-03-18T15:55:13.966Z,8.82
2019-03-18T15:57:43.484Z,8.81
2019-03-18T16:00:14.882Z,8.82
2019-03-18T16:02:44.278Z,8.83
2019-03-18T16:05:13.902Z,8.83
2019-03-18T16:07:43.237Z,8.85
2019-03-18T16:10:13.083Z,8.85
2019-03-18T16:12:42.404Z,8.85
2019-03-18T16:15:11.930Z,8.87
2019-03-18T16:17:41.860Z,8.87
2019-03-18T16:20:12.599Z,8.88
2019-03-18T16:22:41.965Z,8.88
2019-03-18T16:25:13.413Z,8.89
2019-03-18T16:27:42.755Z,8.89
2019-03-18T16:30:13.572Z,8.89
2019-03-18T16:32:42.882Z,8.89
2019-03-18T16:35:15.749Z,8.89
2019-03-18T16:37:43.820Z,8.89
2019-03-18T16:40:13.552Z,8.92
2019-03-18T16:42:43.163Z,8.93
2019-03-18T16:45:13.432Z,8.94
2019-03-18T16:47:42.959Z,8.94
2019-03-18T16:50:13.984Z,8.97
2019-03-18T16:52:43.299Z,8.95
2019-03-18T16:55:12.783Z,8.96
2019-03-18T16:57:42.143Z,8.97
2019-03-18T17:00:14.252Z,8.97
2019-03-18T17:02:43.869Z,8.96
2019-03-18T17:05:13.440Z,8.95
2019-03-18T17:07:44.552Z,8.96
2019-03-18T17:10:13.878Z,8.96
2019-03-18T17:12:43.238Z,8.98
2019-03-18T17:15:12.584Z,9.00
2019-03-18T17:17:42.063Z,9.03
2019-03-18T17:20:12.990Z,9.07
2019-03-18T17:22:48.674Z,9.07
2019-03-18T17:25:15.715Z,9.08
2019-03-18T17:27:45.210Z,9.09
2019-03-18T17:30:16.657Z,9.09
2019-03-18T17:32:45.984Z,9.10
2019-03-18T17:35:15.328Z,9.10
2019-03-18T17:37:45.974Z,9.09
2019-03-18T17:40:15.425Z,9.07
2019-03-18T17:42:51.987Z,9.06
2019-03-18T17:45:21.364Z,9.05
2019-03-18T17:47:52.168Z,9.05
2019-03-18T17:50:22.729Z,9.06
2019-03-18T17:53:02.514Z,9.04
2019-03-18T17:55:23.277Z,9.02
2019-03-18T17:57:52.633Z,8.99
2019-03-18T18:00:24.804Z,8.98
2019-03-18T18:02:55.973Z,8.97
2019-03-18T18:05:25.390Z,8.97
2019-03-18T18:07:54.730Z,8.94
2019-03-18T18:10:24.043Z,8.94
2019-03-18T18:12:53.381Z,8.93
2019-03-18T18:15:22.722Z,8.92
2019-03-18T18:17:52.284Z,8.90
2019-03-18T18:20:21.645Z,8.90
2019-03-18T18:22:51.077Z,8.89
2019-03-18T18:25:20.437Z,8.89
2019-03-18T18:27:51.600Z,8.87
2019-03-18T18:30:20.963Z,8.87
2019-03-18T18:32:50.277Z,8.87
2019-03-18T18:35:19.638Z,8.87
2019-03-18T18:37:49.001Z,8.88
2019-03-18T18:40:18.361Z,8.87
2019-03-18T18:42:47.794Z,8.87
2019-03-18T18:45:17.116Z,8.87
2019-03-18T18:47:47.504Z,8.86
2019-03-18T18:50:16.959Z,8.86
2019-03-18T18:52:46.289Z,8.86
2019-03-18T18:55:15.659Z,8.86
2019-03-18T18:57:45.117Z,8.86
2019-03-18T19:00:15.663Z,8.87
2019-03-18T19:02:45.058Z,8.86
2019-03-18T19:05:14.566Z,8.87
2019-03-18T19:07:44.026Z,8.87
2019-03-18T19:10:13.486Z,8.87
2019-03-18T19:12:42.829Z,8.87
2019-03-18T19:15:17.373Z,8.87
2019-03-18T19:17:46.745Z,8.88
2019-03-18T19:20:16.281Z,8.87
2019-03-18T19:22:45.642Z,8.89
2019-03-18T19:25:15.075Z,8.89
2019-03-18T19:27:46.766Z,8.89
2019-03-18T19:30:17.720Z,8.89
2019-03-18T19:32:47.114Z,8.89
2019-03-18T19:35:16.645Z,8.90
2019-03-18T19:37:45.965Z,8.90
2019-03-18T19:40:15.543Z,8.90
2019-03-18T19:42:44.863Z,8.90
2019-03-18T19:45:14.365Z,8.89
2019-03-18T19:47:43.793Z,8.90
2019-03-18T19:50:15.161Z,8.90
2019-03-18T19:52:44.536Z,8.90
2019-03-18T19:55:13.893Z,8.90
2019-03-18T19:57:43.250Z,8.90
2019-03-18T20:00:15.382Z,8.91
2019-03-18T20:02:44.756Z,8.92
2019-03-18T20:05:15.353Z,8.93
2019-03-18T20:07:45.187Z,8.93
2019-03-18T20:10:14.569Z,8.94
2019-03-18T20:12:43.919Z,8.94
2019-03-18T20:15:13.811Z,8.95
2019-03-18T20:17:43.144Z,8.95
2019-03-18T20:20:13.463Z,8.95
2019-03-18T20:22:43.289Z,8.95
2019-03-18T20:25:14.610Z,8.94
2019-03-18T20:27:43.948Z,8.95
2019-03-18T20:30:14.677Z,8.95
2019-03-18T20:32:44.032Z,8.95
2019-03-18T20:35:13.962Z,8.96
2019-03-18T20:37:43.313Z,8.95
2019-03-18T20:40:13.501Z,8.96
2019-03-18T20:42:43.036Z,8.96
2019-03-18T20:45:13.698Z,8.97
2019-03-18T20:47:43.069Z,8.96
2019-03-18T20:50:13.737Z,8.95
2019-03-18T20:52:43.083Z,8.95
2019-03-18T20:55:12.735Z,8.96
2019-03-18T20:57:42.236Z,8.95
2019-03-18T21:00:12.600Z,8.96
2019-03-18T21:02:41.947Z,8.95
2019-03-18T21:05:11.405Z,8.96
2019-03-18T21:07:40.726Z,8.95
2019-03-18T21:10:11.077Z,8.95
2019-03-18T21:12:41.504Z,8.95
2019-03-18T21:15:11.063Z,8.95
2019-03-18T21:17:40.376Z,8.95
2019-03-18T21:20:12.269Z,8.95
2019-03-18T21:22:41.631Z,8.95
2019-03-18T21:25:11.077Z,8.95
2019-03-18T21:27:40.411Z,8.95
2019-03-18T21:30:10.548Z,8.95
2019-03-18T21:32:39.894Z,8.96
2019-03-18T21:35:09.367Z,8.96
2019-03-18T21:37:38.709Z,8.96
2019-03-18T21:40:08.628Z,8.96
2019-03-18T21:42:37.967Z,8.96
2019-03-18T21:45:07.497Z,8.97
2019-03-18T21:47:36.860Z,8.97
2019-03-18T21:50:06.471Z,8.97
2019-03-18T21:52:35.771Z,8.98
2019-03-18T21:55:05.297Z,8.98
2019-03-18T21:57:34.610Z,8.98
2019-03-18T22:00:04.157Z,8.99
2019-03-18T22:02:33.499Z,9.01
2019-03-18T22:05:02.869Z,9.01
2019-03-18T22:07:32.223Z,9.00
2019-03-18T22:10:01.634Z,9.01
2019-03-18T22:12:30.981Z,9.02
2019-03-18T22:15:00.437Z,9.01
2019-03-18T22:17:29.769Z,9.02
2019-03-18T22:19:59.143Z,9.03
2019-03-18T22:22:28.462Z,9.05
2019-03-18T22:24:57.814Z,9.03
2019-03-18T22:27:27.148Z,9.04
2019-03-18T22:29:57.088Z,9.05
2019-03-18T22:32:26.475Z,9.04
2019-03-18T22:34:55.832Z,9.05
2019-03-18T22:37:25.170Z,9.05
2019-03-18T22:39:54.490Z,9.05
2019-03-18T22:42:23.851Z,9.05
2019-03-18T22:44:53.201Z,9.04
2019-03-18T22:47:22.539Z,9.04
2019-03-18T22:49:51.906Z,9.05
2019-03-18T22:52:21.248Z,9.05
2019-03-18T22:54:55.835Z,9.04
2019-03-18T22:57:21.626Z,9.05
2019-03-18T22:59:50.976Z,9.05
2019-03-18T23:02:20.300Z,9.05
2019-03-18T23:04:50.017Z,9.06
2019-03-18T23:07:19.383Z,9.05
2019-03-18T23:09:48.721Z,9.05
2019-03-18T23:12:18.058Z,9.05
2019-03-18T23:14:47.364Z,9.05
2019-03-18T23:17:16.728Z,9.06
2019-03-18T23:19:47.190Z,9.05
2019-03-18T23:22:16.544Z,9.06
2019-03-18T23:24:45.901Z,9.07
2019-03-18T23:27:15.231Z,9.06
2019-03-18T23:29:44.554Z,9.06
2019-03-18T23:32:13.933Z,9.06
2019-03-18T23:34:43.245Z,9.06
2019-03-18T23:37:12.667Z,9.06
2019-03-18T23:39:42.000Z,9.06
2019-03-18T23:42:11.348Z,9.06
2019-03-18T23:44:41.585Z,9.07
2019-03-18T23:47:10.994Z,9.06
2019-03-18T23:49:40.335Z,9.06
2019-03-18T23:52:09.691Z,9.06
2019-03-18T23:54:39.323Z,9.07
2019-03-18T23:57:08.687Z,9.07
2019-03-18T23:59:38.029Z,9.07
